createdAt,value
2022-11-26T00:09:13.881Z,4.97
2022-11-26T00:19:16.433Z,3.33
2022-11-26T00:29:18.865Z,2.20
2022-11-26T00:39:24.886Z,1.80
2022-11-26T00:49:29.274Z,1.50
2022-11-26T00:59:32.076Z,1.55
2022-11-26T01:09:34.572Z,1.90
2022-11-26T01:19:36.936Z,1.90
2022-11-26T01:29:39.673Z,1.70
2022-11-26T01:39:42.587Z,1.30
2022-11-26T01:50:23.546Z,1.70
2022-11-26T02:00:26.202Z,1.33
2022-11-26T02:10:28.623Z,1.70
2022-11-26T02:20:42.448Z,1.93
2022-11-26T02:31:20.822Z,1.80
2022-11-26T02:41:23.495Z,1.63
2022-11-26T02:51:32.055Z,1.47
2022-11-26T03:01:43.476Z,2.03
2022-11-26T03:11:46.345Z,2.60
2022-11-26T03:21:48.658Z,2.40
2022-11-26T03:31:51.047Z,2.73
2022-11-26T03:41:53.771Z,2.30
2022-11-26T03:51:56.238Z,2.30
2022-11-26T04:01:58.785Z,1.63
2022-11-26T04:12:01.259Z,1.93
2022-11-26T04:22:03.602Z,1.90
2022-11-26T04:32:06.426Z,1.80
2022-11-26T04:42:08.832Z,2.23
2022-11-26T04:52:11.452Z,1.77
2022-11-26T05:02:14.099Z,1.67
2022-11-26T05:12:16.451Z,1.30
2022-11-26T05:22:18.815Z,1.40
2022-11-26T05:32:21.382Z,1.60
2022-11-26T05:42:23.958Z,1.83
2022-11-26T05:52:27.136Z,1.70
2022-11-26T06:02:29.633Z,2.83
2022-11-26T06:12:32.343Z,1.83
2022-11-26T06:22:39.206Z,2.13
2022-11-26T06:32:41.701Z,1.83
2022-11-26T06:42:49.910Z,1.70
2022-11-26T06:52:54.039Z,2.00
2022-11-26T07:02:57.008Z,1.50
2022-11-26T07:13:00.639Z,1.77
2022-11-26T07:23:05.238Z,2.20
2022-11-26T07:33:08.218Z,2.10
2022-11-26T07:43:10.908Z,2.17
2022-11-26T07:53:14.586Z,1.90
2022-11-26T08:03:17.846Z,2.60
2022-11-26T08:13:20.617Z,2.43
2022-11-26T08:23:24.192Z,2.90
2022-11-26T08:33:26.885Z,3.13
2022-11-26T08:43:51.291Z,3.47
2022-11-26T08:53:53.691Z,4.30
2022-11-26T09:04:03.236Z,4.10
2022-11-26T09:14:05.781Z,3.80
2022-11-26T09:24:08.540Z,3.60
2022-11-26T09:34:11.575Z,4.00
2022-11-26T09:44:44.089Z,5.30
2022-11-26T09:54:48.688Z,6.80
2022-11-26T10:04:51.735Z,7.72
2022-11-26T10:15:12.533Z,7.27
2022-11-26T10:25:20.112Z,8.80
2022-11-26T10:35:26.045Z,8.50
2022-11-26T10:45:39.308Z,9.93
2022-11-26T10:55:44.034Z,9.67
2022-11-26T11:05:46.951Z,11.60
2022-11-26T11:16:01.875Z,11.20
2022-11-26T11:26:04.495Z,11.68
2022-11-26T11:36:15.903Z,10.07
2022-11-26T11:46:28.495Z,8.77
2022-11-26T11:56:49.264Z,9.37
2022-11-26T12:07:11.794Z,8.03
2022-11-26T12:17:20.531Z,7.47
2022-11-26T12:27:42.755Z,6.70
2022-11-26T12:37:50.726Z,5.90
2022-11-26T12:48:04.472Z,3.63
2022-11-26T12:58:13.364Z,3.13
2022-11-26T13:08:30.606Z,3.70
2022-11-26T13:18:49.645Z,4.17
2022-11-26T13:29:10.681Z,3.27
2022-11-26T13:39:16.017Z,3.27
2022-11-26T13:49:46.464Z,3.40
2022-11-26T13:59:52.091Z,3.33
2022-11-26T14:09:57.621Z,4.17
2022-11-26T14:20:01.450Z,7.13
2022-11-26T14:30:07.566Z,8.30
2022-11-26T14:40:24.181Z,22.27
2022-11-26T14:50:27.240Z,7.53
2022-11-26T15:00:32.329Z,7.63
2022-11-26T15:11:07.241Z,7.03
2022-11-26T15:21:19.971Z,7.53
2022-11-26T15:31:22.930Z,8.33
2022-11-26T15:41:26.725Z,6.93
2022-11-26T15:51:36.120Z,7.37
2022-11-26T16:01:40.268Z,8.70
2022-11-26T16:12:01.306Z,8.00
2022-11-26T16:22:06.385Z,5.53
2022-11-26T16:42:22.135Z,9.37
2022-11-26T16:52:24.753Z,10.20
2022-11-26T17:02:27.449Z,8.27
2022-11-26T17:12:30.283Z,8.73
2022-11-26T17:22:32.811Z,7.27
2022-11-26T17:32:35.484Z,6.47
2022-11-26T17:42:38.334Z,5.73
2022-11-26T17:52:40.919Z,6.33
2022-11-26T18:02:44.473Z,6.47
2022-11-26T18:12:47.703Z,7.53
2022-11-26T18:22:52.519Z,8.83
2022-11-26T18:32:55.256Z,9.90
2022-11-26T18:42:57.883Z,10.93
2022-11-26T18:53:00.721Z,10.53
2022-11-26T19:03:03.668Z,12.40
2022-11-26T19:13:06.532Z,10.13
2022-11-26T19:23:09.561Z,9.97
2022-11-26T19:33:12.437Z,8.70
2022-11-26T19:43:15.214Z,10.50
2022-11-26T19:53:17.974Z,10.53
2022-11-26T20:03:20.982Z,11.03
2022-11-26T20:13:23.588Z,12.00
2022-11-26T20:23:27.416Z,11.43
2022-11-26T20:33:30.141Z,12.63
2022-11-26T20:43:34.902Z,11.13
2022-11-26T20:53:39.435Z,10.60
2022-11-26T21:03:42.183Z,11.03
2022-11-26T21:13:45.303Z,11.33
2022-11-26T21:23:47.838Z,12.97
2022-11-26T21:34:02.529Z,12.47
2022-11-26T21:44:05.311Z,12.03
2022-11-26T21:54:10.413Z,11.60
2022-11-26T22:04:16.321Z,12.13
2022-11-26T22:14:19.620Z,13.00
2022-11-26T22:24:22.466Z,11.17
2022-11-26T22:34:27.269Z,12.67
2022-11-26T22:44:30.426Z,10.90
2022-11-26T22:54:33.001Z,11.27
2022-11-26T23:04:35.838Z,10.20
2022-11-26T23:14:38.805Z,10.10
2022-11-26T23:24:41.363Z,10.33
2022-11-26T23:34:44.268Z,11.23
2022-11-26T23:44:46.869Z,9.23
2022-11-26T23:54:49.239Z,7.87
